DAL19 KJFK-EHAM
Flight info
| Callsign | DAL19 |
|---|---|
| Flight time | N/A |
| Altitude | 39000 |
| Route | GREKI DCT JUDDS DCT MARTN DCT CBIRD DCT TAFFY N809A IRLOK/M084F390 DCT 5630N05000W 5730N04000W 5730N03000W 5630N02000W DCT ETARI/N0479F390 DCT MOGLO DCT LIFFY DCT DOLAS L603 LAMSO |
| Aircraft | A359/H-SDE2E3GHIJ1J3J4J5LM1ORWXY/LB1D1 |
Departure
| Time | N/A |
|---|---|
| Airport | John F. Kennedy International Airport (KJFK) |
Arrival
| Time | 2026-04-30 22:07 |
|---|---|
| Airport | Amsterdam Airport Schiphol (EHAM) |
| Time | Latitude | Longitude | Altitude | Speed | Heading |
|---|---|---|---|---|---|
| 2026-04-30 19:39 | 57.23015 | -26.31527 | 39279 ft | 517 kts | 98° |
| 2026-04-30 19:39 | 57.22434 | -26.24989 | 39276 ft | 517 kts | 98° |
| 2026-04-30 19:40 | 57.21270 | -26.11997 | 39276 ft | 517 kts | 98° |
| 2026-04-30 19:40 | 57.20084 | -25.98915 | 39281 ft | 517 kts | 98° |
| 2026-04-30 19:41 | 57.18886 | -25.85855 | 39276 ft | 517 kts | 98° |
| 2026-04-30 19:41 | 57.17674 | -25.72811 | 39281 ft | 516 kts | 98° |
| 2026-04-30 19:42 | 57.16460 | -25.59894 | 39284 ft | 515 kts | 98° |
| 2026-04-30 19:42 | 57.15226 | -25.46907 | 39284 ft | 515 kts | 98° |
| 2026-04-30 19:43 | 57.13978 | -25.33928 | 39287 ft | 515 kts | 98° |
| 2026-04-30 19:44 | 57.12090 | -25.14563 | 39290 ft | 515 kts | 99° |
| 2026-04-30 19:44 | 57.10808 | -25.01602 | 39287 ft | 515 kts | 99° |
| 2026-04-30 19:45 | 57.09515 | -24.88670 | 39290 ft | 514 kts | 99° |
| 2026-04-30 19:45 | 57.08211 | -24.75777 | 39292 ft | 512 kts | 99° |
| 2026-04-30 19:46 | 57.06897 | -24.62924 | 39292 ft | 512 kts | 99° |
| 2026-04-30 19:46 | 57.05580 | -24.50171 | 39298 ft | 512 kts | 99° |
| 2026-04-30 19:47 | 57.04241 | -24.37334 | 39295 ft | 512 kts | 99° |
| 2026-04-30 19:47 | 57.02889 | -24.24512 | 39297 ft | 511 kts | 99° |
| 2026-04-30 19:48 | 57.01526 | -24.11729 | 39300 ft | 510 kts | 100° |
| 2026-04-30 19:48 | 57.00163 | -23.99065 | 39300 ft | 509 kts | 100° |
| 2026-04-30 19:49 | 56.98779 | -23.86343 | 39297 ft | 507 kts | 100° |
| 2026-04-30 19:49 | 56.96686 | -23.67341 | 39301 ft | 507 kts | 100° |
| 2026-04-30 19:50 | 56.95275 | -23.54679 | 39311 ft | 507 kts | 100° |
| 2026-04-30 19:50 | 56.93862 | -23.42130 | 39300 ft | 506 kts | 100° |
| 2026-04-30 19:51 | 56.92427 | -23.29504 | 39303 ft | 506 kts | 101° |
| 2026-04-30 19:51 | 56.90979 | -23.16889 | 39303 ft | 507 kts | 101° |
| 2026-04-30 19:52 | 56.89518 | -23.04277 | 39298 ft | 507 kts | 101° |
| 2026-04-30 19:52 | 56.88058 | -22.91794 | 39303 ft | 504 kts | 101° |
| 2026-04-30 19:53 | 56.86581 | -22.79287 | 39305 ft | 503 kts | 101° |
| 2026-04-30 19:53 | 56.85095 | -22.66808 | 39300 ft | 502 kts | 101° |
| 2026-04-30 19:54 | 56.83596 | -22.54337 | 39300 ft | 502 kts | 101° |
| 2026-04-30 19:54 | 56.82086 | -22.41891 | 39300 ft | 502 kts | 101° |
| 2026-04-30 19:55 | 56.80572 | -22.29524 | 39300 ft | 502 kts | 101° |
| 2026-04-30 19:55 | 56.79036 | -22.17087 | 39298 ft | 503 kts | 102° |
| 2026-04-30 19:56 | 56.77488 | -22.04660 | 39298 ft | 502 kts | 102° |
| 2026-04-30 19:56 | 56.75929 | -21.92261 | 39297 ft | 502 kts | 102° |
| 2026-04-30 19:57 | 56.74369 | -21.79958 | 39298 ft | 502 kts | 102° |
| 2026-04-30 19:57 | 56.72785 | -21.67575 | 39298 ft | 502 kts | 102° |
| 2026-04-30 19:58 | 56.71191 | -21.55210 | 39301 ft | 502 kts | 102° |
| 2026-04-30 19:58 | 56.69583 | -21.42850 | 39301 ft | 502 kts | 102° |
| 2026-04-30 19:59 | 56.67970 | -21.30554 | 39296 ft | 504 kts | 102° |
| 2026-04-30 20:00 | 56.65505 | -21.11962 | 39296 ft | 505 kts | 102° |
| 2026-04-30 20:00 | 56.63844 | -20.99566 | 39297 ft | 505 kts | 102° |
| 2026-04-30 20:01 | 56.61340 | -20.81057 | 39292 ft | 505 kts | 103° |
| 2026-04-30 20:01 | 56.59648 | -20.68681 | 39297 ft | 505 kts | 103° |
| 2026-04-30 20:02 | 56.57083 | -20.50112 | 39292 ft | 506 kts | 103° |
| 2026-04-30 20:03 | 56.54502 | -20.31647 | 39292 ft | 506 kts | 103° |
| 2026-04-30 20:03 | 56.52758 | -20.19301 | 39292 ft | 506 kts | 103° |
| 2026-04-30 20:04 | 56.51005 | -20.06985 | 39295 ft | 505 kts | 103° |
| 2026-04-30 20:05 | 56.48177 | -19.88646 | 39287 ft | 503 kts | 107° |
| 2026-04-30 20:05 | 56.44883 | -19.70723 | 39286 ft | 503 kts | 107° |
| 2026-04-30 20:06 | 56.42697 | -19.58723 | 39290 ft | 503 kts | 107° |
| 2026-04-30 20:06 | 56.40532 | -19.46709 | 39289 ft | 503 kts | 107° |
| 2026-04-30 20:07 | 56.38369 | -19.34725 | 39285 ft | 500 kts | 107° |
| 2026-04-30 20:08 | 56.35141 | -19.16995 | 39282 ft | 498 kts | 107° |
| 2026-04-30 20:08 | 56.32965 | -19.05145 | 39280 ft | 497 kts | 107° |
| 2026-04-30 20:09 | 56.30778 | -18.93314 | 39283 ft | 499 kts | 107° |
| 2026-04-30 20:09 | 56.27491 | -18.75674 | 39278 ft | 498 kts | 107° |
| 2026-04-30 20:10 | 56.24162 | -18.57969 | 39274 ft | 498 kts | 108° |
| 2026-04-30 20:11 | 56.20788 | -18.40195 | 39268 ft | 501 kts | 108° |
| 2026-04-30 20:11 | 56.18536 | -18.28422 | 39269 ft | 503 kts | 108° |
| 2026-04-30 20:12 | 56.15113 | -18.10665 | 39264 ft | 502 kts | 108° |
| 2026-04-30 20:13 | 56.12815 | -17.98834 | 39260 ft | 501 kts | 109° |
| 2026-04-30 20:13 | 56.10510 | -17.87040 | 39263 ft | 502 kts | 109° |
| 2026-04-30 20:14 | 56.08191 | -17.75246 | 39252 ft | 501 kts | 108° |
| 2026-04-30 20:14 | 56.05880 | -17.63564 | 39256 ft | 502 kts | 109° |
| 2026-04-30 20:15 | 56.03544 | -17.51825 | 39254 ft | 500 kts | 109° |
| 2026-04-30 20:15 | 56.01195 | -17.40090 | 39252 ft | 502 kts | 109° |
| 2026-04-30 20:16 | 55.98852 | -17.28457 | 39255 ft | 500 kts | 109° |
| 2026-04-30 20:16 | 55.96487 | -17.16774 | 39246 ft | 499 kts | 109° |
| 2026-04-30 20:17 | 55.94121 | -17.05164 | 39243 ft | 497 kts | 109° |
| 2026-04-30 20:17 | 55.91746 | -16.93577 | 39238 ft | 496 kts | 110° |
| 2026-04-30 20:18 | 55.89375 | -16.82078 | 39235 ft | 494 kts | 109° |
| 2026-04-30 20:18 | 55.87011 | -16.70675 | 39237 ft | 494 kts | 110° |
| 2026-04-30 20:19 | 55.84622 | -16.59220 | 39227 ft | 493 kts | 110° |
| 2026-04-30 20:19 | 55.82225 | -16.47782 | 39227 ft | 493 kts | 110° |
| 2026-04-30 20:20 | 55.79822 | -16.36386 | 39218 ft | 492 kts | 110° |
| 2026-04-30 20:20 | 55.77424 | -16.25079 | 39219 ft | 492 kts | 110° |
| 2026-04-30 20:21 | 55.75001 | -16.13720 | 39207 ft | 491 kts | 110° |
| 2026-04-30 20:21 | 55.72576 | -16.02408 | 39208 ft | 490 kts | 110° |
| 2026-04-30 20:22 | 55.70159 | -15.91198 | 39208 ft | 490 kts | 110° |
| 2026-04-30 20:22 | 55.67718 | -15.79932 | 39201 ft | 490 kts | 111° |
| 2026-04-30 20:23 | 55.65265 | -15.68679 | 39199 ft | 490 kts | 111° |
| 2026-04-30 20:23 | 55.62801 | -15.57439 | 39191 ft | 490 kts | 111° |
| 2026-04-30 20:24 | 55.60344 | -15.46289 | 39194 ft | 490 kts | 111° |
| 2026-04-30 20:24 | 55.57869 | -15.35114 | 39191 ft | 486 kts | 111° |
| 2026-04-30 20:25 | 55.54173 | -15.18537 | 39184 ft | 482 kts | 112° |
| 2026-04-30 20:26 | 55.50727 | -15.01980 | 39180 ft | 481 kts | 104° |
| 2026-04-30 20:26 | 55.50019 | -14.90257 | 39176 ft | 482 kts | 92° |
| 2026-04-30 20:26 | 55.49978 | -14.84338 | 39175 ft | 483 kts | 91° |
| 2026-04-30 20:27 | 55.50089 | -14.60637 | 39160 ft | 483 kts | 91° |
| 2026-04-30 20:28 | 55.50106 | -14.36936 | 39160 ft | 486 kts | 92° |
| 2026-04-30 20:30 | 55.50030 | -14.07143 | 39161 ft | 486 kts | 92° |
| 2026-04-30 20:30 | 55.48098 | -13.89958 | 39150 ft | 477 kts | 109° |
| 2026-04-30 20:31 | 55.44898 | -13.73382 | 39149 ft | 476 kts | 111° |
| 2026-04-30 20:32 | 55.39460 | -13.45944 | 39148 ft | 476 kts | 111° |
| 2026-04-30 20:33 | 55.36191 | -13.29467 | 39140 ft | 476 kts | 111° |
| 2026-04-30 20:34 | 55.32899 | -13.13023 | 39143 ft | 475 kts | 111° |
| 2026-04-30 20:35 | 55.29600 | -12.96686 | 39137 ft | 475 kts | 111° |
| 2026-04-30 20:35 | 55.26265 | -12.80301 | 39137 ft | 475 kts | 111° |
| 2026-04-30 20:36 | 55.24031 | -12.69402 | 39138 ft | 475 kts | 112° |
| 2026-04-30 20:37 | 55.20662 | -12.53079 | 39133 ft | 475 kts | 112° |
| 2026-04-30 20:37 | 55.18418 | -12.42282 | 39133 ft | 475 kts | 112° |
| 2026-04-30 20:38 | 55.16150 | -12.31423 | 39124 ft | 475 kts | 112° |
| 2026-04-30 20:38 | 55.13873 | -12.20583 | 39125 ft | 474 kts | 112° |
| 2026-04-30 20:39 | 55.10461 | -12.04447 | 39131 ft | 475 kts | 112° |
| 2026-04-30 20:40 | 55.07007 | -11.88242 | 39122 ft | 475 kts | 112° |
| 2026-04-30 20:40 | 55.04692 | -11.77451 | 39112 ft | 475 kts | 112° |
| 2026-04-30 20:41 | 55.01201 | -11.61286 | 39109 ft | 475 kts | 112° |
| 2026-04-30 20:41 | 54.98878 | -11.50600 | 39120 ft | 475 kts | 113° |
| 2026-04-30 20:42 | 54.96533 | -11.39870 | 39112 ft | 475 kts | 113° |
| 2026-04-30 20:43 | 54.92996 | -11.23786 | 39101 ft | 474 kts | 113° |
| 2026-04-30 20:43 | 54.90643 | -11.13156 | 39114 ft | 474 kts | 113° |
| 2026-04-30 20:44 | 54.87072 | -10.97127 | 39106 ft | 474 kts | 113° |
| 2026-04-30 20:45 | 54.82272 | -10.75770 | 39106 ft | 476 kts | 114° |
| 2026-04-30 20:45 | 54.79869 | -10.65164 | 39106 ft | 476 kts | 114° |
| 2026-04-30 20:46 | 54.75014 | -10.43884 | 39105 ft | 474 kts | 114° |
| 2026-04-30 20:47 | 54.71351 | -10.27974 | 39091 ft | 474 kts | 114° |
| 2026-04-30 20:48 | 54.67683 | -10.12161 | 39101 ft | 475 kts | 114° |
| 2026-04-30 20:48 | 54.65213 | -10.01577 | 39095 ft | 475 kts | 115° |
| 2026-04-30 20:49 | 54.62733 | -9.91004 | 39097 ft | 475 kts | 115° |
| 2026-04-30 20:50 | 54.59019 | -9.75263 | 39095 ft | 474 kts | 115° |
| 2026-04-30 20:50 | 54.56526 | -9.64762 | 39087 ft | 473 kts | 115° |
| 2026-04-30 20:51 | 54.54025 | -9.54281 | 39093 ft | 473 kts | 115° |
| 2026-04-30 20:51 | 54.50276 | -9.38662 | 39095 ft | 473 kts | 115° |
| 2026-04-30 20:52 | 54.47754 | -9.28218 | 39089 ft | 473 kts | 115° |
| 2026-04-30 20:53 | 54.43958 | -9.12590 | 39089 ft | 473 kts | 115° |
| 2026-04-30 20:53 | 54.41413 | -9.02177 | 39088 ft | 473 kts | 115° |
| 2026-04-30 20:54 | 54.37597 | -8.86654 | 39084 ft | 473 kts | 115° |
| 2026-04-30 20:55 | 54.33747 | -8.71101 | 39092 ft | 472 kts | 115° |
| 2026-04-30 20:55 | 54.31169 | -8.60748 | 39086 ft | 472 kts | 115° |
| 2026-04-30 20:56 | 54.27303 | -8.45314 | 39089 ft | 472 kts | 116° |
| 2026-04-30 20:57 | 54.23404 | -8.29854 | 39091 ft | 472 kts | 116° |
| 2026-04-30 20:57 | 54.20791 | -8.19556 | 39091 ft | 472 kts | 116° |
| 2026-04-30 20:58 | 54.16884 | -8.04241 | 39106 ft | 471 kts | 116° |
| 2026-04-30 20:58 | 54.14257 | -7.94009 | 39080 ft | 471 kts | 116° |
| 2026-04-30 20:59 | 54.10293 | -7.78652 | 39100 ft | 473 kts | 116° |
| 2026-04-30 21:00 | 54.04989 | -7.58254 | 39104 ft | 472 kts | 116° |
| 2026-04-30 21:01 | 54.00972 | -7.42939 | 39099 ft | 472 kts | 116° |
| 2026-04-30 21:02 | 53.96939 | -7.27663 | 39099 ft | 473 kts | 116° |
| 2026-04-30 21:02 | 53.94254 | -7.17553 | 39102 ft | 473 kts | 116° |
| 2026-04-30 21:03 | 53.91544 | -7.07385 | 39100 ft | 473 kts | 117° |
| 2026-04-30 21:03 | 53.88821 | -6.97219 | 39100 ft | 473 kts | 117° |
| 2026-04-30 21:04 | 53.86093 | -6.87080 | 39107 ft | 473 kts | 117° |
| 2026-04-30 21:04 | 53.81998 | -6.71947 | 39104 ft | 475 kts | 117° |
| 2026-04-30 21:05 | 53.79237 | -6.61797 | 39107 ft | 474 kts | 117° |
| 2026-04-30 21:05 | 53.76474 | -6.51683 | 39105 ft | 474 kts | 117° |
| 2026-04-30 21:06 | 53.73722 | -6.41654 | 39111 ft | 474 kts | 117° |
| 2026-04-30 21:06 | 53.70944 | -6.31574 | 39110 ft | 473 kts | 117° |
| 2026-04-30 21:07 | 53.68157 | -6.21506 | 39108 ft | 473 kts | 117° |
| 2026-04-30 21:07 | 53.65364 | -6.11462 | 39114 ft | 473 kts | 118° |
| 2026-04-30 21:08 | 53.62567 | -6.01445 | 39119 ft | 472 kts | 118° |
| 2026-04-30 21:08 | 53.59792 | -5.91550 | 39121 ft | 472 kts | 118° |
| 2026-04-30 21:09 | 53.56980 | -5.81566 | 39116 ft | 472 kts | 118° |
| 2026-04-30 21:09 | 53.54160 | -5.71597 | 39119 ft | 472 kts | 118° |
| 2026-04-30 21:10 | 53.51337 | -5.61659 | 39121 ft | 471 kts | 118° |
| 2026-04-30 21:10 | 53.48739 | -5.51615 | 39126 ft | 474 kts | 110° |
| 2026-04-30 21:11 | 53.47519 | -5.40698 | 39125 ft | 479 kts | 99° |
| 2026-04-30 21:11 | 53.46907 | -5.29556 | 39127 ft | 480 kts | 97° |
| 2026-04-30 21:12 | 53.46381 | -5.18388 | 39126 ft | 480 kts | 97° |
| 2026-04-30 21:12 | 53.45832 | -5.07305 | 39126 ft | 480 kts | 98° |
| 2026-04-30 21:13 | 53.45243 | -4.96139 | 39124 ft | 480 kts | 98° |
| 2026-04-30 21:13 | 53.44637 | -4.84986 | 39119 ft | 480 kts | 98° |
| 2026-04-30 21:14 | 53.44019 | -4.73841 | 39118 ft | 480 kts | 98° |
| 2026-04-30 21:14 | 53.43396 | -4.62762 | 39112 ft | 480 kts | 98° |
| 2026-04-30 21:15 | 53.42759 | -4.51614 | 39129 ft | 481 kts | 98° |
| 2026-04-30 21:15 | 53.42111 | -4.40453 | 39128 ft | 481 kts | 98° |
| 2026-04-30 21:16 | 53.41453 | -4.29289 | 39132 ft | 481 kts | 98° |
| 2026-04-30 21:16 | 53.40789 | -4.18215 | 39131 ft | 481 kts | 98° |
| 2026-04-30 21:17 | 53.40110 | -4.07067 | 39133 ft | 481 kts | 98° |
| 2026-04-30 21:17 | 53.39420 | -3.95919 | 39139 ft | 481 kts | 99° |
| 2026-04-30 21:18 | 53.38720 | -3.84769 | 39146 ft | 481 kts | 99° |
| 2026-04-30 21:18 | 53.38009 | -3.73624 | 39146 ft | 481 kts | 99° |
| 2026-04-30 21:19 | 53.37289 | -3.62491 | 39149 ft | 481 kts | 99° |
| 2026-04-30 21:19 | 53.36563 | -3.51440 | 39145 ft | 480 kts | 99° |
| 2026-04-30 21:20 | 53.35825 | -3.40348 | 39157 ft | 479 kts | 99° |
| 2026-04-30 21:20 | 53.35075 | -3.29255 | 39157 ft | 479 kts | 99° |
| 2026-04-30 21:21 | 53.34315 | -3.18177 | 39174 ft | 479 kts | 99° |
| 2026-04-30 21:22 | 53.33162 | -3.01635 | 39179 ft | 478 kts | 99° |
| 2026-04-30 21:23 | 53.31601 | -2.79751 | 39189 ft | 477 kts | 99° |
| 2026-04-30 21:23 | 53.30400 | -2.63300 | 39197 ft | 477 kts | 100° |
| 2026-04-30 21:24 | 53.29583 | -2.52296 | 39205 ft | 477 kts | 99° |
| 2026-04-30 21:24 | 53.28756 | -2.41289 | 39206 ft | 477 kts | 100° |
| 2026-04-30 21:25 | 53.27498 | -2.24806 | 39215 ft | 477 kts | 100° |
| 2026-04-30 21:26 | 53.26222 | -2.08399 | 39204 ft | 477 kts | 100° |
| 2026-04-30 21:27 | 53.24924 | -1.92005 | 39214 ft | 479 kts | 100° |
| 2026-04-30 21:27 | 53.24038 | -1.80973 | 39228 ft | 479 kts | 100° |
| 2026-04-30 21:28 | 53.22697 | -1.64513 | 39227 ft | 479 kts | 100° |
| 2026-04-30 21:29 | 53.21328 | -1.48014 | 39231 ft | 478 kts | 101° |
| 2026-04-30 21:30 | 53.19167 | -1.22530 | 39235 ft | 475 kts | 101° |
| 2026-04-30 21:31 | 53.16636 | -0.93513 | 39239 ft | 474 kts | 101° |
| 2026-04-30 21:32 | 53.15349 | -0.79065 | 39239 ft | 473 kts | 101° |
| 2026-04-30 21:32 | 53.14212 | -0.66468 | 39238 ft | 473 kts | 101° |
| 2026-04-30 21:33 | 53.12893 | -0.52046 | 39238 ft | 473 kts | 101° |
| 2026-04-30 21:34 | 53.11890 | -0.41205 | 39238 ft | 473 kts | 101° |
| 2026-04-30 21:34 | 53.10203 | -0.23217 | 39238 ft | 473 kts | 101° |
| 2026-04-30 21:35 | 53.09342 | -0.14155 | 39238 ft | 473 kts | 101° |
| 2026-04-30 21:35 | 53.08312 | -0.03419 | 39238 ft | 473 kts | 101° |
| 2026-04-30 21:36 | 53.07266 | 0.07383 | 39256 ft | 472 kts | 101° |
| 2026-04-30 21:37 | 53.05152 | 0.28906 | 39249 ft | 471 kts | 101° |
| 2026-04-30 21:37 | 53.04087 | 0.39589 | 39249 ft | 471 kts | 102° |
| 2026-04-30 21:38 | 53.03006 | 0.50330 | 39257 ft | 471 kts | 102° |
| 2026-04-30 21:38 | 53.01916 | 0.61064 | 39262 ft | 471 kts | 101° |
| 2026-04-30 21:39 | 53.00816 | 0.71793 | 39265 ft | 471 kts | 102° |
| 2026-04-30 21:39 | 52.99714 | 0.82442 | 39272 ft | 471 kts | 102° |
| 2026-04-30 21:40 | 52.98597 | 0.93148 | 39273 ft | 471 kts | 102° |
| 2026-04-30 21:40 | 52.97465 | 1.03844 | 39271 ft | 471 kts | 102° |
| 2026-04-30 21:41 | 52.96241 | 1.14531 | 39279 ft | 472 kts | 103° |
| 2026-04-30 21:41 | 52.94987 | 1.25147 | 39279 ft | 473 kts | 103° |
| 2026-04-30 21:42 | 52.93725 | 1.35840 | 39276 ft | 473 kts | 103° |
| 2026-04-30 21:42 | 52.92462 | 1.46535 | 39281 ft | 473 kts | 103° |
| 2026-04-30 21:43 | 52.91192 | 1.57220 | 39279 ft | 474 kts | 103° |
| 2026-04-30 21:43 | 52.89915 | 1.67884 | 39177 ft | 476 kts | 103° |
| 2026-04-30 21:44 | 52.89268 | 1.73248 | 38952 ft | 475 kts | 103° |
| 2026-04-30 21:44 | 52.88619 | 1.78610 | 38680 ft | 475 kts | 103° |
| 2026-04-30 21:44 | 52.87969 | 1.83966 | 38399 ft | 475 kts | 103° |
| 2026-04-30 21:44 | 52.87314 | 1.89324 | 38046 ft | 473 kts | 103° |
| 2026-04-30 21:45 | 52.86665 | 1.94631 | 37481 ft | 470 kts | 104° |
| 2026-04-30 21:45 | 52.86015 | 1.99917 | 36844 ft | 468 kts | 103° |
| 2026-04-30 21:45 | 52.85363 | 2.05198 | 36180 ft | 468 kts | 103° |
| 2026-04-30 21:45 | 52.84710 | 2.10460 | 35518 ft | 467 kts | 104° |
| 2026-04-30 21:46 | 52.84063 | 2.15657 | 34807 ft | 468 kts | 103° |
| 2026-04-30 21:46 | 52.83403 | 2.20935 | 33987 ft | 470 kts | 103° |
| 2026-04-30 21:46 | 52.82737 | 2.26239 | 33175 ft | 471 kts | 104° |
| 2026-04-30 21:46 | 52.82069 | 2.31544 | 32354 ft | 471 kts | 104° |
| 2026-04-30 21:47 | 52.81399 | 2.36848 | 31520 ft | 472 kts | 103° |
| 2026-04-30 21:47 | 52.80725 | 2.42163 | 30671 ft | 473 kts | 103° |
| 2026-04-30 21:47 | 52.80046 | 2.47496 | 29697 ft | 475 kts | 104° |
| 2026-04-30 21:47 | 52.79365 | 2.52834 | 28872 ft | 474 kts | 103° |
| 2026-04-30 21:48 | 52.78699 | 2.58051 | 28322 ft | 467 kts | 104° |
| 2026-04-30 21:48 | 52.78029 | 2.63264 | 27699 ft | 462 kts | 104° |
| 2026-04-30 21:48 | 52.77361 | 2.68425 | 27090 ft | 457 kts | 104° |
| 2026-04-30 21:48 | 52.76698 | 2.73529 | 26466 ft | 453 kts | 104° |
| 2026-04-30 21:49 | 52.76039 | 2.78586 | 25847 ft | 449 kts | 104° |
| 2026-04-30 21:49 | 52.75384 | 2.83607 | 25243 ft | 446 kts | 104° |
| 2026-04-30 21:49 | 52.74730 | 2.88584 | 24646 ft | 442 kts | 104° |
| 2026-04-30 21:49 | 52.74078 | 2.93519 | 24044 ft | 439 kts | 104° |
| 2026-04-30 21:50 | 52.73345 | 2.98312 | 23386 ft | 434 kts | 110° |
| 2026-04-30 21:50 | 52.72118 | 3.02805 | 22840 ft | 428 kts | 120° |
| 2026-04-30 21:50 | 52.70653 | 3.07081 | 22340 ft | 428 kts | 121° |
| 2026-04-30 21:50 | 52.69155 | 3.11322 | 21829 ft | 427 kts | 121° |
| 2026-04-30 21:51 | 52.67666 | 3.15531 | 21325 ft | 424 kts | 121° |
| 2026-04-30 21:51 | 52.66187 | 3.19719 | 20821 ft | 421 kts | 121° |
| 2026-04-30 21:51 | 52.64722 | 3.23869 | 20305 ft | 418 kts | 121° |
| 2026-04-30 21:51 | 52.63287 | 3.27931 | 19824 ft | 414 kts | 121° |
| 2026-04-30 21:52 | 52.61843 | 3.32015 | 19332 ft | 411 kts | 121° |
| 2026-04-30 21:52 | 52.60408 | 3.36069 | 18850 ft | 409 kts | 121° |
| 2026-04-30 21:52 | 52.59046 | 3.40161 | 18337 ft | 407 kts | 116° |
| 2026-04-30 21:52 | 52.58178 | 3.44574 | 17846 ft | 407 kts | 104° |
| 2026-04-30 21:53 | 52.57653 | 3.49139 | 17358 ft | 404 kts | 102° |
| 2026-04-30 21:53 | 52.57185 | 3.53674 | 16874 ft | 401 kts | 101° |
| 2026-04-30 21:53 | 52.56720 | 3.58163 | 16397 ft | 397 kts | 102° |
| 2026-04-30 21:53 | 52.56259 | 3.62554 | 15944 ft | 394 kts | 102° |
| 2026-04-30 21:54 | 52.55790 | 3.66966 | 15474 ft | 390 kts | 102° |
| 2026-04-30 21:54 | 52.55321 | 3.71339 | 15012 ft | 387 kts | 102° |
| 2026-04-30 21:54 | 52.54854 | 3.75672 | 14554 ft | 384 kts | 102° |
| 2026-04-30 21:54 | 52.54389 | 3.79966 | 14099 ft | 380 kts | 102° |
| 2026-04-30 21:55 | 52.53925 | 3.84226 | 13618 ft | 377 kts | 102° |
| 2026-04-30 21:55 | 52.53463 | 3.88452 | 13162 ft | 375 kts | 102° |
| 2026-04-30 21:55 | 52.53002 | 3.92651 | 12715 ft | 373 kts | 102° |
| 2026-04-30 21:55 | 52.52456 | 3.96797 | 12276 ft | 369 kts | 108° |
| 2026-04-30 21:56 | 52.51611 | 4.00697 | 11855 ft | 366 kts | 112° |
| 2026-04-30 21:56 | 52.50674 | 4.04551 | 11532 ft | 357 kts | 113° |
| 2026-04-30 21:56 | 52.49762 | 4.08255 | 11288 ft | 343 kts | 113° |
| 2026-04-30 21:56 | 52.48888 | 4.11811 | 11049 ft | 330 kts | 113° |
| 2026-04-30 21:57 | 52.48047 | 4.15239 | 10824 ft | 317 kts | 113° |
| 2026-04-30 21:57 | 52.47239 | 4.18530 | 10603 ft | 305 kts | 113° |
| 2026-04-30 21:57 | 52.46462 | 4.21693 | 10402 ft | 291 kts | 113° |
| 2026-04-30 21:57 | 52.45722 | 4.24704 | 9925 ft | 280 kts | 113° |
| 2026-04-30 21:58 | 52.45009 | 4.27600 | 9306 ft | 275 kts | 113° |
| 2026-04-30 21:58 | 52.44298 | 4.30483 | 8679 ft | 271 kts | 113° |
| 2026-04-30 21:58 | 52.43592 | 4.33330 | 8050 ft | 267 kts | 114° |
| 2026-04-30 21:58 | 52.42670 | 4.35918 | 7500 ft | 260 kts | 131° |
| 2026-04-30 21:59 | 52.41274 | 4.37702 | 7185 ft | 256 kts | 152° |
| 2026-04-30 21:59 | 52.39553 | 4.38422 | 6895 ft | 259 kts | 174° |
| 2026-04-30 21:59 | 52.37751 | 4.38322 | 6569 ft | 259 kts | 180° |
| 2026-04-30 22:00 | 52.34192 | 4.37812 | 5946 ft | 258 kts | 181° |
| 2026-04-30 22:00 | 52.30635 | 4.37331 | 5335 ft | 255 kts | 181° |
| 2026-04-30 22:00 | 52.28870 | 4.37101 | 5026 ft | 253 kts | 181° |
| 2026-04-30 22:01 | 52.27126 | 4.36876 | 4776 ft | 248 kts | 181° |
| 2026-04-30 22:01 | 52.25448 | 4.36746 | 4608 ft | 235 kts | 173° |
| 2026-04-30 22:01 | 52.23945 | 4.37472 | 4375 ft | 221 kts | 147° |
| 2026-04-30 22:01 | 52.22911 | 4.39248 | 4041 ft | 217 kts | 122° |
| 2026-04-30 22:02 | 52.22243 | 4.41417 | 3765 ft | 216 kts | 117° |
| 2026-04-30 22:02 | 52.21627 | 4.43633 | 3445 ft | 214 kts | 117° |
| 2026-04-30 22:02 | 52.21061 | 4.45857 | 3202 ft | 211 kts | 111° |
| 2026-04-30 22:02 | 52.20844 | 4.48208 | 2953 ft | 209 kts | 98° |
| 2026-04-30 22:03 | 52.20813 | 4.50458 | 2889 ft | 186 kts | 97° |
| 2026-04-30 22:03 | 52.20899 | 4.52425 | 2891 ft | 163 kts | 87° |
| 2026-04-30 22:03 | 52.21337 | 4.54070 | 2821 ft | 158 kts | 68° |
| 2026-04-30 22:03 | 52.21926 | 4.55579 | 2601 ft | 157 kts | 69° |
| 2026-04-30 22:04 | 52.22491 | 4.57057 | 2380 ft | 150 kts | 69° |
| 2026-04-30 22:04 | 52.23031 | 4.58457 | 2174 ft | 143 kts | 70° |
| 2026-04-30 22:04 | 52.24036 | 4.61070 | 1809 ft | 132 kts | 70° |
| 2026-04-30 22:05 | 52.24523 | 4.62337 | 1642 ft | 131 kts | 69° |
| 2026-04-30 22:05 | 52.25007 | 4.63596 | 1454 ft | 131 kts | 68° |
| 2026-04-30 22:05 | 52.25490 | 4.64846 | 1284 ft | 130 kts | 69° |
| 2026-04-30 22:05 | 52.25958 | 4.66058 | 1105 ft | 124 kts | 71° |
| 2026-04-30 22:06 | 52.26412 | 4.67241 | 945 ft | 122 kts | 71° |
| 2026-04-30 22:06 | 52.27301 | 4.69632 | 514 ft | 126 kts | 62° |
| 2026-04-30 22:06 | 52.27810 | 4.70839 | 325 ft | 135 kts | 58° |
| 2026-04-30 22:07 | 52.28322 | 4.72147 | 227 ft | 138 kts | 63° |
| 2026-04-30 22:07 | 52.28829 | 4.73478 | 53 ft | 138 kts | 63° |
| 2026-04-30 22:07 | 52.29305 | 4.74767 | 6 ft | 119 kts | 59° |
| 2026-04-30 22:07 | 52.29618 | 4.75563 | 5 ft | 42 kts | 58° |
| 2026-04-30 22:08 | 52.29759 | 4.75788 | 4 ft | 26 kts | 27° |
| 2026-04-30 22:08 | 52.29891 | 4.75899 | 5 ft | 21 kts | 27° |
| 2026-04-30 22:08 | 52.30006 | 4.76026 | 5 ft | 20 kts | 52° |
| 2026-04-30 22:08 | 52.30082 | 4.76227 | 5 ft | 22 kts | 58° |
| 2026-04-30 22:09 | 52.30166 | 4.76445 | 5 ft | 23 kts | 58° |
| 2026-04-30 22:09 | 52.30256 | 4.76676 | 5 ft | 25 kts | 57° |
| 2026-04-30 22:09 | 52.30351 | 4.76921 | 5 ft | 26 kts | 58° |
| 2026-04-30 22:09 | 52.30449 | 4.77176 | 5 ft | 27 kts | 58° |
| 2026-04-30 22:10 | 52.30551 | 4.77439 | 5 ft | 23 kts | 57° |
| 2026-04-30 22:10 | 52.30634 | 4.77578 | 5 ft | 17 kts | 20° |
| 2026-04-30 22:10 | 52.30760 | 4.77598 | 5 ft | 19 kts | 3° |
| 2026-04-30 22:10 | 52.30902 | 4.77613 | 5 ft | 21 kts | 4° |
| 2026-04-30 22:11 | 52.31225 | 4.77638 | 5 ft | 25 kts | 3° |
| 2026-04-30 22:11 | 52.31400 | 4.77652 | 5 ft | 24 kts | 356° |
| 2026-04-30 22:11 | 52.31541 | 4.77506 | 5 ft | 25 kts | 309° |
| 2026-04-30 22:12 | 52.31573 | 4.77223 | 5 ft | 27 kts | 267° |
| 2026-04-30 22:12 | 52.31562 | 4.76912 | 5 ft | 27 kts | 266° |
| 2026-04-30 22:12 | 52.31555 | 4.76731 | 5 ft | 10 kts | 263° |
| 2026-04-30 22:12 | 52.31503 | 4.76680 | 5 ft | 10 kts | 190° |
| 2026-04-30 22:13 | 52.31446 | 4.76639 | 5 ft | 6 kts | 208° |
| 2026-04-30 22:13 | 52.31417 | 4.76648 | 5 ft | 4 kts | 144° |
| 2026-04-30 22:13 | 52.31394 | 4.76699 | 5 ft | 7 kts | 123° |
| 2026-04-30 22:13 | 52.31379 | 4.76734 | 5 ft | 1 kts | 123° |
| 2026-04-30 22:14 | 52.31377 | 4.76740 | 5 ft | 0 kts | 123° |